Map

Track Data

SID SEASON NUMBER BASIN SUBBASIN NAME ISO_TIME NATURE LAT LON WMO_WIND WMO_PRES WMO_AGENCY TRACK_TYPE DIST2LAND LANDFALL IFLAG USA_AGENCY USA_ATCF_ID USA_LAT USA_LON USA_RECORD USA_STATUS USA_WIND USA_PRES USA_SSHS USA_R34_NE USA_R34_SE USA_R34_SW USA_R34_NW USA_R50_NE USA_R50_SE USA_R50_SW USA_R50_NW USA_R64_NE USA_R64_SE USA_R64_SW USA_R64_NW USA_POCI USA_ROCI USA_RMW USA_EYE TOKYO_LAT TOKYO_LON TOKYO_GRADE TOKYO_WIND TOKYO_PRES TOKYO_R50_DIR TOKYO_R50_LONG TOKYO_R50_SHORT TOKYO_R30_DIR TOKYO_R30_LONG TOKYO_R30_SHORT TOKYO_LAND CMA_LAT CMA_LON CMA_CAT CMA_WIND CMA_PRES HKO_LAT HKO_LON HKO_CAT HKO_WIND HKO_PRES NEWDELHI_LAT NEWDELHI_LON NEWDELHI_GRADE NEWDELHI_WIND NEWDELHI_PRES NEWDELHI_CI NEWDELHI_DP NEWDELHI_POCI REUNION_LAT REUNION_LON REUNION_TYPE REUNION_WIND REUNION_PRES REUNION_TNUM REUNION_CI REUNION_RMW REUNION_R34_NE REUNION_R34_SE REUNION_R34_SW REUNION_R34_NW REUNION_R50_NE REUNION_R50_SE REUNION_R50_SW REUNION_R50_NW REUNION_R64_NE REUNION_R64_SE REUNION_R64_SW REUNION_R64_NW BOM_LAT BOM_LON BOM_TYPE BOM_WIND BOM_PRES BOM_TNUM BOM_CI BOM_RMW BOM_R34_NE BOM_R34_SE BOM_R34_SW BOM_R34_NW BOM_R50_NE BOM_R50_SE BOM_R50_SW BOM_R50_NW BOM_R64_NE BOM_R64_SE BOM_R64_SW BOM_R64_NW BOM_ROCI BOM_POCI BOM_EYE BOM_POS_METHOD BOM_PRES_METHOD NADI_LAT NADI_LON NADI_CAT NADI_WIND NADI_PRES WELLINGTON_LAT WELLINGTON_LON WELLINGTON_WIND WELLINGTON_PRES DS824_LAT DS824_LON DS824_STAGE DS824_WIND DS824_PRES TD9636_LAT TD9636_LON TD9636_STAGE TD9636_WIND TD9636_PRES TD9635_LAT TD9635_LON TD9635_WIND TD9635_PRES TD9635_ROCI NEUMANN_LAT NEUMANN_LON NEUMANN_CLASS NEUMANN_WIND NEUMANN_PRES MLC_LAT MLC_LON MLC_CLASS MLC_WIND MLC_PRES USA_GUST BOM_GUST BOM_GUST_PER REUNION_GUST REUNION_GUST_PER USA_SEAHGT USA_SEARAD_NE USA_SEARAD_SE USA_SEARAD_SW USA_SEARAD_NW STORM_SPEED STORM_DIR
1963019S13124 1963 8 SI WA NOT_NAMED 1963-01-18 23:00:00 NR -12.8000 124.000 main 239 239 __________O___ -1 -12.8000 124.000 1 5 267
1963019S13124 1963 8 SI WA NOT_NAMED 1963-01-19 00:00:00 TS -12.8045 123.921 main 245 245 O________OP___ jtwc_sh SH191963 -12.8000 123.900 -1 -12.8000 123.900 TC -12.8090 123.941 1 4 250
1963019S13124 1963 8 SI WA NOT_NAMED 1963-01-19 01:00:00 TS -12.8427 123.879 1001 bom main 245 236 P_____O__PP___ SH191963 -12.8221 123.846 -1 -13.0000 124.000 1001 -12.8221 123.846 TC -12.8179 123.883 1 3 242
1963019S13124 1963 8 SI WA NOT_NAMED 1963-01-19 03:00:00 TS -12.8766 123.782 main 243 243 P_____P__PP___ SH191963 -12.8625 123.740 -1 -13.0008 123.936 -12.8625 123.740 TC -12.8355 123.768 1 3 250
1963019S13124 1963 8 SI WA NOT_NAMED 1963-01-19 06:00:00 TS -12.9161 123.672 main 250 250 O_____P__OP_O_ jtwc_sh SH191963 -12.9000 123.600 -1 -13.0042 123.840 -12.9000 123.600 TC -12.8611 123.609 1 -13.0000 124.000 TC 25 1001 2 251
1963019S13124 1963 8 SI WA NOT_NAMED 1963-01-19 09:00:00 TS -12.9385 123.590 main 257 256 P_____P__PP_P_ SH191963 -12.9000 123.492 -1 -13.0133 123.745 -12.9000 123.492 TC -12.8851 123.473 1 -13.0500 123.903 TC 25 1001 2 253
1963019S13124 1963 8 SI WA NOT_NAMED 1963-01-19 11:00:00 TS -12.9538 123.541 main 256 256 P_____P__PO_P_ SH191963 -12.8969 123.431 -1 -13.0242 123.683 -12.8969 123.431 TC -12.9000 123.400 1 -13.0833 123.835 TC 25 1001 1 248
1963019S13124 1963 8 SI WA NOT_NAMED 1963-01-19 12:00:00 TS -12.9677 123.524 main 256 256 O_____P__OP_O_ jtwc_sh SH191963 -12.9000 123.400 -1 -13.0315 123.653 -12.9000 123.400 TC -12.9070 123.370 1 -13.1000 123.800 TC 25 1001 2 243
1963019S13124 1963 8 SI WA NOT_NAMED 1963-01-19 15:00:00 TS -13.0080 123.433 main 264 264 P_____P__PP_P_ SH191963 -12.9500 123.308 -1 -13.0624 123.563 -12.9500 123.308 TC -12.9277 123.294 1 -13.1500 123.693 TC 25 1001 2 245
1963019S13124 1963 8 SI WA NOT_NAMED 1963-01-19 18:00:00 TS -13.0518 123.339 main 265 265 O_____P__OP_O_ jtwc_sh SH191963 -13.0000 123.200 -1 -13.1092 123.478 -13.0000 123.200 TC -12.9501 123.217 1 -13.2000 123.600 TC 25 1001 2 249
1963019S13124 1963 8 SI WA NOT_NAMED 1963-01-19 21:00:00 TS -13.0791 123.243 main 273 273 P_____P__PP_P_ SH191963 -12.9999 123.080 -1 -13.1754 123.398 -12.9999 123.080 TC -12.9774 123.107 1 -13.2425 123.550 TC 25 1001 2 254
1963019S13124 1963 8 SI WA NOT_NAMED 1963-01-19 23:00:00 TS -13.1007 123.161 main 273 273 P_____P__PO_P_ SH191963 -12.9969 122.970 -1 -13.2321 123.348 -12.9969 122.970 TC -13.0000 123.000 1 -13.2776 123.520 TC 25 1001 3 250
1963019S13124 1963 8 SI WA NOT_NAMED 1963-01-20 00:00:00 TS -13.1230 123.118 main 282 282 O_____P__OP_O_ jtwc_sh SH191963 -13.0000 122.900 -1 -13.2646 123.323 -13.0000 122.900 TC -13.0060 122.919 1 -13.3000 123.500 TC 25 1001 3 241
1963019S13124 1963 8 SI WA NOT_NAMED 1963-01-20 01:00:00 TS -13.1518 123.069 1001 bom main 275 275 P_____O__PP_P_ SH191963 -13.0110 122.817 -1 -13.3000 123.300 1001 -13.0110 122.817 TC -13.0121 122.830 1 -13.3250 123.472 TC 25 1000 4 241
1963019S13124 1963 8 SI WA NOT_NAMED 1963-01-20 03:00:00 TS -13.2119 122.951 main 284 284 P_____P__PP_P_ SH191963 -13.0425 122.623 -1 -13.3797 123.255 -13.0425 122.623 TC -13.0266 122.631 1 -13.3850 123.408 TC 27 1000 4 241
1963019S13124 1963 8 SI WA NOT_NAMED 1963-01-20 06:00:00 TS -13.3156 122.764 main 297 297 O_____P__OP_O_ jtwc_sh SH191963 -13.1000 122.300 -1 -13.5185 123.192 -13.1000 122.300 TC -13.0627 122.305 1 -13.5000 123.300 TC 30 1000 4 242
1963019S13124 1963 8 SI WA NOT_NAMED 1963-01-20 09:00:00 TS -13.4105 122.564 main 311 311 P_____P__PP_P_ SH191963 -13.1275 121.977 -1 -13.6758 123.130 -13.1275 121.977 TC -13.1300 121.987 1 -13.6350 123.193 TC 30 1000 4 241
1963019S13124 1963 8 SI WA NOT_NAMED 1963-01-20 11:00:00 TS -13.4886 122.443 main 318 318 P_____P__PO_P_ SH191963 -13.1662 121.783 -1 -13.7882 123.088 -13.1662 121.783 TC -13.2000 121.800 1 -13.7417 123.128 TC 30 1000 4 234
1963019S13124 1963 8 SI WA NOT_NAMED 1963-01-20 12:00:00 TS -13.5348 122.391 main 318 310 O_____P__OP_O_ jtwc_sh SH191963 -13.2000 121.700 -1 -13.8460 123.067 -13.2000 121.700 TC -13.2428 121.723 1 -13.8000 123.100 TC 30 1000 4 218
1963019S13124 1963 8 SI WA NOT_NAMED 1963-01-20 15:00:00 TS -13.7061 122.265 main 310 300 P_____P__PP_P_ SH191963 -13.3700 121.520 -1 -14.0237 122.999 -13.3700 121.520 TC -13.4028 121.520 1 -14.0000 123.050 TC 30 1000 4 211
1963019S13124 1963 8 SI WA NOT_NAMED 1963-01-20 18:00:00 TS -13.9040 122.164 main 300 282 O_____P__OP_O_ jtwc_sh SH191963 -13.6000 121.400 -1 -14.2034 122.923 -13.6000 121.400 TC -13.6029 121.363 1 -14.2000 123.000 TC 30 1000 4 207
1963019S13124 1963 8 SI WA NOT_NAMED 1963-01-20 21:00:00 TS -14.1016 122.062 main 282 274 P_____P__PP_P_ SH191963 -13.8350 121.285 -1 -14.3797 122.837 -13.8350 121.285 TC -13.8337 121.250 1 -14.3650 122.908 TC 30 1000 4 206
1963019S13124 1963 8 SI WA NOT_NAMED 1963-01-20 23:00:00 TS -14.2370 121.999 main 274 264 P_____P__PO_P_ SH191963 -14.0083 121.225 -1 -14.4927 122.772 -14.0083 121.225 TC -14.0000 121.200 1 -14.4583 122.836 TC 30 1000 4 204
1963019S13124 1963 8 SI WA NOT_NAMED 1963-01-21 00:00:00 TS -14.3054 121.968 main 264 258 O_____P__OP_O_ jtwc_sh SH191963 -14.1000 121.200 -1 -14.5471 122.737 -14.1000 121.200 TC -14.0853 121.171 1 -14.5000 122.800 TC 30 1000 5 201
1963019S13124 1963 8 SI WA NOT_NAMED 1963-01-21 01:00:00 TS -14.3749 121.937 1000 bom main 258 248 P_____O__PP_P_ SH191963 -14.1969 121.172 -1 -14.6000 122.700 1000 -14.1969 121.172 TC -14.1740 121.147 1 -14.5364 122.769 TC 30 1000 5 204
1963019S13124 1963 8 SI WA NOT_NAMED 1963-01-21 03:00:00 TS -14.5134 121.879 main 248 233 P_____P__PP_P_ SH191963 -14.4000 121.128 -1 -14.6872 122.616 -14.4000 121.128 TC -14.3591 121.115 1 -14.6000 122.707 TC 30 1000 4 200
1963019S13124 1963 8 SI WA NOT_NAMED 1963-01-21 06:00:00 TS -14.7201 121.806 main 233 214 O_____P__OP_O_ jtwc_sh SH191963 -14.7000 121.100 -1 -14.8104 122.478 -14.7000 121.100 TC -14.6456 121.105 1 -14.7000 122.600 TC 30 1000 4 198
1963019S13124 1963 8 SI WA NOT_NAMED 1963-01-21 09:00:00 TS -14.9205 121.745 main 220 211 P_____P__PP_P_ SH191963 -14.9650 121.113 -1 -14.9263 122.327 -14.9650 121.113 TC -14.9258 121.144 1 -14.8500 122.465 TC 30 1000 4 195
1963019S13124 1963 8 SI WA NOT_NAMED 1963-01-21 11:00:00 TS -15.0462 121.719 main 211 202 P_____P__PO_P_ SH191963 -15.1250 121.161 -1 -15.0004 122.220 -15.1250 121.161 TC -15.1000 121.200 1 -14.9531 122.358 TC 30 1000 4 194
1963019S13124 1963 8 SI WA NOT_NAMED 1963-01-21 12:00:00 TS -15.1043 121.711 main 202 185 O_____P__OP_O_ jtwc_sh SH191963 -15.2000 121.200 -1 -15.0367 122.166 -15.2000 121.200 TC -15.1743 121.238 1 -15.0000 122.300 TC 30 1000 3 0
1963019S13124 1963 8 SI WA NOT_NAMED 1963-01-21 15:00:00 TS -15.2638 121.708 main 185 177 P_____P__PP_P_ SH191963 -15.4075 121.377 -1 -15.1436 121.996 -15.4075 121.377 TC -15.3797 121.394 1 -15.1075 122.100 TC 30 1000 3 177
1963019S13124 1963 8 SI WA NOT_NAMED 1963-01-21 18:00:00 TS -15.4130 121.724 main 177 162 O_____P__OP_O_ jtwc_sh SH191963 -15.6000 121.600 -1 -15.2490 121.820 -15.6000 121.600 TC -15.5708 121.586 1 -15.2000 121.900 TC 30 1000 3 172
1963019S13124 1963 8 SI WA NOT_NAMED 1963-01-21 21:00:00 TS -15.5624 121.742 main 162 154 P_____P__PP_P_ SH191963 -15.7925 121.808 -1 -15.3548 121.641 -15.7925 121.808 TC -15.7632 121.782 1 -15.2925 121.742 TC 30 1000 3 0
1963019S13124 1963 8 SI WA NOT_NAMED 1963-01-21 23:00:00 TS -15.6670 121.750 main 146 146 P_____P__PO_P_ SH191963 -15.9276 121.939 -1 -15.4266 121.520 -15.9276 121.939 TC -15.9000 121.900 1 -15.3609 121.647 TC 30 1000 3 175
1963019S13124 1963 8 SI WA NOT_NAMED 1963-01-22 00:00:00 TS -15.7249 121.754 main 146 139 O_____P__OP_O_ jtwc_sh SH191963 -16.0000 122.000 -1 -15.4630 121.460 -16.0000 122.000 TC -15.9864 121.963 1 -15.4000 121.600 TC 30 1000 4 0
1963019S13124 1963 8 SI WA NOT_NAMED 1963-01-22 01:00:00 TS -15.7880 121.760 1000 bom main 139 131 P_____O__PP_P_ SH191963 -16.0802 122.066 -1 -15.5000 121.400 1000 -16.0802 122.066 TC -16.0762 122.026 1 -15.4469 121.553 TC 30 999 4 0
1963019S13124 1963 8 SI WA NOT_NAMED 1963-01-22 03:00:00 TS -15.9195 121.767 main 131 116 P_____P__PP_P_ SH191963 -16.2500 122.187 -1 -15.5721 121.280 -16.2500 122.187 TC -16.2608 122.144 1 -15.5500 121.458 TC 30 999 4 182
1963019S13124 1963 8 SI WA NOT_NAMED 1963-01-22 06:00:00 TS -16.1140 121.744 main 123 108 O_____P__OP_O_ jtwc_sh SH191963 -16.5000 122.300 -1 -15.6804 121.097 -16.5000 122.300 TC -16.5335 122.280 1 -15.7000 121.300 TC 30 999 4 195
1963019S13124 1963 8 SI WA NOT_NAMED 1963-01-22 09:00:00 TS -16.2881 121.668 main 108 108 P_____P__PP_P_ SH191963 -16.7299 122.318 -1 -15.7907 120.913 -16.7299 122.318 TC -16.7736 122.332 1 -15.8000 121.100 TC 30 999 4 210
1963019S13124 1963 8 SI WA NOT_NAMED 1963-01-22 11:00:00 TS -16.3882 121.580 main 108 108 P_____P__PO_P_ SH191963 -16.8530 122.256 -1 -15.8664 120.790 -16.8530 122.256 TC -16.9000 122.300 1 -15.8636 120.964 TC 30 999 4 224
1963019S13124 1963 8 SI WA NOT_NAMED 1963-01-22 12:00:00 TS -16.4307 121.523 main 115 108 O_____P__OP_O_ jtwc_sh SH191963 -16.9000 122.200 -1 -15.9052 120.729 -16.9000 122.200 TC -16.9424 122.251 1 -15.9000 120.900 TC 30 999 4 240
1963019S13124 1963 8 SI WA NOT_NAMED 1963-01-22 15:00:00 TS -16.5350 121.312 main 125 120 P_____P__PP_P_ SH191963 -16.9726 121.937 -1 -16.0258 120.548 -16.9726 121.937 TC -17.0248 122.016 1 -16.0500 120.750 TC 32 998 5 247
1963019S13124 1963 8 SI WA NOT_NAMED 1963-01-22 18:00:00 TS -16.6171 121.061 main 139 139 O_____P__OP_O_ jtwc_sh SH191963 -17.0000 121.600 -1 -16.1548 120.373 -17.0000 121.600 TC -17.0621 121.690 1 -16.2000 120.600 TC 35 998 5 252
1963019S13124 1963 8 SI WA NOT_NAMED 1963-01-22 21:00:00 TS -16.6970 120.806 main 163 163 P_____P__PP_P_ SH191963 -17.0500 121.292 -1 -16.2942 120.206 -17.0500 121.292 TC -17.0822 121.331 1 -16.3075 120.407 TC 35 998 5 252
1963019S13124 1963 8 SI WA NOT_NAMED 1963-01-22 23:00:00 TS -16.7495 120.638 main 182 179 P_____P__PO_P_ SH191963 -17.0833 121.094 -1 -16.3940 120.100 -17.0833 121.094 TC -17.1000 121.100 1 -16.3693 120.269 TC 35 998 5 251
1963019S13124 1963 8 SI WA NOT_NAMED 1963-01-23 00:00:00 TS -16.7769 120.559 main 179 179 O_____P__OP_O_ jtwc_sh SH191963 -17.1000 121.000 -1 -16.4462 120.049 -17.1000 121.000 TC -17.1154 121.007 1 -16.4000 120.200 TC 35 998 5 251
1963019S13124 1963 8 SI WA NOT_NAMED 1963-01-23 01:00:00 TS -16.8023 120.485 998 bom main 189 189 P_____O__PP_P_ SH191963 -17.1140 120.911 -1 -16.5000 120.000 998 -17.1140 120.911 TC -17.1311 120.917 1 -16.4359 120.136 TC 35 997 4 249
1963019S13124 1963 8 SI WA NOT_NAMED 1963-01-23 03:00:00 TS -16.8569 120.344 main 206 206 P_____P__PP_P_ SH191963 -17.1424 120.742 -1 -16.6355 119.927 -17.1424 120.742 TC -17.1648 120.740 1 -16.5075 120.007 TC 35 997 4 247
1963019S13124 1963 8 SI WA NOT_NAMED 1963-01-23 06:00:00 TS -16.9442 120.136 main 226 222 O_____P__OP_O_ jtwc_sh SH191963 -17.2000 120.500 -1 -16.8539 119.829 -17.2000 120.500 TC -17.2284 120.487 1 -16.6000 119.800 TC 35 997 4 246
1963019S13124 1963 8 SI WA NOT_NAMED 1963-01-23 09:00:00 TS -17.0372 119.917 main 243 240 P_____P__PP_P_ SH191963 -17.2775 120.235 -1 -17.0809 119.738 -17.2775 120.235 TC -17.3188 120.250 1 -16.6575 119.557 TC 35 996 5 245
1963019S13124 1963 8 SI WA NOT_NAMED 1963-01-23 11:00:00 TS -17.1090 119.773 main 250 250 P_____P__PO_P_ SH191963 -17.3526 120.072 -1 -17.2317 119.676 -17.3526 120.072 TC -17.4000 120.100 1 -16.6860 119.386 TC 35 996 5 241
1963019S13124 1963 8 SI WA NOT_NAMED 1963-01-23 12:00:00 TS -17.1493 119.706 main 260 258 O_____P__OP_O_ jtwc_sh SH191963 -17.4000 120.000 -1 -17.3057 119.644 -17.4000 120.000 TC -17.4472 120.040 1 -16.7000 119.300 TC 35 996 4 233
1963019S13124 1963 8 SI WA NOT_NAMED 1963-01-23 15:00:00 TS -17.2865 119.528 main 274 274 P_____P__PP_P_ SH191963 -17.5774 119.850 -1 -17.5174 119.540 -17.5774 119.850 TC -17.6156 119.877 1 -16.7425 119.050 TC 35 996 5 229
1963019S13124 1963 8 SI WA NOT_NAMED 1963-01-23 18:00:00 TS -17.4465 119.342 main 287 275 O_____P__OP_O_ jtwc_sh SH191963 -17.8000 119.700 -1 -17.7053 119.415 -17.8000 119.700 TC -17.8167 119.707 1 -16.8000 118.800 TC 35 996 5 229
1963019S13124 1963 8 SI WA NOT_NAMED 1963-01-23 21:00:00 TS -17.6200 119.123 main 278 267 P_____P__PP_P_ SH191963 -18.0424 119.495 -1 -17.8585 119.260 -18.0424 119.495 TC -18.0416 119.490 1 -16.8774 118.572 TC 37 995 6 231
1963019S13124 1963 8 SI WA NOT_NAMED 1963-01-23 22:00:00 TS -17.6813 119.039 998 bom main 268 268 P_____O__PP_P_ SH191963 -18.1278 119.409 -1 -17.9000 119.200 998 -18.1278 119.409 TC -18.1202 119.401 1 -16.9120 118.490 TC 38 995 6 234
1963019S13124 1963 8 SI WA NOT_NAMED 1963-01-23 23:00:00 TS -17.7438 118.949 main 269 258 P_____P__PO_P_ SH191963 -18.2140 119.311 -1 -17.9352 119.156 998 -18.2140 119.311 TC -18.2000 119.300 1 -16.9525 118.400 TC 39 995 7 232
1963019S13124 1963 8 SI WA NOT_NAMED 1963-01-24 00:00:00 TS -17.8169 118.856 main 258 248 O_____P__OP_O_ jtwc_sh SH191963 -18.3000 119.200 -1 -17.9679 119.095 998 -18.3000 119.200 TC -18.2878 119.181 1 -17.0000 118.300 TC 40 995 7 233
1963019S13124 1963 8 SI WA NOT_NAMED 1963-01-24 01:00:00 TS -17.8889 118.746 998 bom main 249 240 P_____O__PP_P_ SH191963 -18.3833 119.078 -1 -18.0000 119.000 998 -18.3833 119.078 TC -18.3790 119.052 1 -17.0500 118.186 TC 40 994 8 240
1963019S13124 1963 8 SI WA NOT_NAMED 1963-01-24 03:00:00 TS -18.0267 118.470 main 243 235 P_____P__PP_P_ SH191963 -18.5500 118.795 -1 -18.0588 118.683 997 -18.5500 118.795 TC -18.5667 118.766 1 -17.1700 117.930 TC 40 994 9 242
1963019S13124 1963 8 SI WA NOT_NAMED 1963-01-24 04:00:00 TS -18.0986 118.322 997 bom main 239 232 P_____O__PP_P_ SH191963 -18.6333 118.637 -1 -18.1000 118.500 997 -18.6333 118.637 TC -18.6606 118.611 1 -17.2400 117.791 TC 40 994 10 243
1963019S13124 1963 8 SI WA NOT_NAMED 1963-01-24 06:00:00 TS -18.2504 118.005 main 232 232 O_____P__OP_O_ jtwc_sh SH191963 -18.8000 118.300 -1 -18.2358 118.167 997 -18.8000 118.300 TC -18.8420 118.282 1 -17.4000 117.500 TC 40 994 10 243
1963019S13124 1963 8 SI WA NOT_NAMED 1963-01-24 07:00:00 TS -18.3311 117.843 997 bom main 237 218 P_____O__PP_P_ SH191963 -18.8965 118.126 -1 -18.3000 118.000 997 -18.8965 118.126 TC -18.9271 118.110 1 -17.4860 117.353 TC 40 993 11 243
1963019S13124 1963 8 SI WA NOT_NAMED 1963-01-24 09:00:00 TS -18.4867 117.507 main 221 221 P_____P__PP_P_ SH191963 -19.0875 117.758 -1 -18.3702 117.667 997 -19.0875 117.758 TC -19.0795 117.758 1 -17.6775 117.050 TC 42 993 11 244
1963019S13124 1963 8 SI WA NOT_NAMED 1963-01-24 10:00:00 TS -18.5615 117.337 997 bom main 218 218 P_____O__PP_P_ SH191963 -19.1729 117.570 -1 -18.4000 117.500 997 -19.1729 117.570 TC -19.1444 117.579 1 -17.7812 116.897 TC 43 992 11 245
1963019S13124 1963 8 SI WA NOT_NAMED 1963-01-24 11:00:00 TS -18.6345 117.167 main 222 213 P_____P__PO_P_ SH191963 -19.2452 117.383 -1 -18.4453 117.333 996 -19.2452 117.383 TC -19.2000 117.400 1 -17.8890 116.747 TC 44 992 10 246
1963019S13124 1963 8 SI WA NOT_NAMED 1963-01-24 12:00:00 TS -18.7005 117.000 main 213 191 O_____P__OP_O_ jtwc_sh SH191963 -19.3000 117.200 -1 -18.4962 117.167 996 -19.3000 117.200 TC -19.2297 117.234 1 -18.0000 116.600 TC 45 992 10 250
1963019S13124 1963 8 SI WA NOT_NAMED 1963-01-24 15:00:00 TS -18.8586 116.516 main 191 191 P_____P__PP_P_ SH191963 -19.3372 116.700 -1 -18.6546 116.667 996 -19.3372 116.700 TC -19.2659 116.725 1 -18.3498 116.200 TC 45 991 10 252
1963019S13124 1963 8 SI WA NOT_NAMED 1963-01-24 16:00:00 TS -18.9022 116.356 996 bom main 192 189 P_____O__PP_P_ SH191963 -19.3269 116.536 -1 -18.7000 116.500 996 -19.3269 116.536 TC -19.2665 116.552 1 -18.4690 116.069 TC 45 991 9 255
1963019S13124 1963 8 SI WA NOT_NAMED 1963-01-24 18:00:00 TS -18.9816 116.032 main 193 193 O_____P__OP_O_ jtwc_sh SH191963 -19.3000 116.200 -1 -18.7684 116.167 996 -19.3000 116.200 TC -19.2615 116.202 1 -18.7000 115.800 TC 45 991 10 256
1963019S13124 1963 8 SI WA NOT_NAMED 1963-01-24 19:00:00 TS -19.0178 115.866 996 bom main 197 197 P_____O__PP_P_ SH191963 -19.2894 116.025 -1 -18.8000 116.000 996 -19.2894 116.025 TC -19.2597 116.025 1 -18.8057 115.650 TC 45 990 10 257
1963019S13124 1963 8 SI WA NOT_NAMED 1963-01-24 21:00:00 TS -19.0909 115.530 main 209 209 P_____P__PP_P_ SH191963 -19.2698 115.665 -1 -18.8666 115.667 995 -19.2698 115.665 TC -19.2666 115.665 1 -19.0075 115.342 TC 45 990 10 257
1963019S13124 1963 8 SI WA NOT_NAMED 1963-01-24 22:00:00 TS -19.1311 115.361 995 bom main 215 212 P_____O__PP_P_ SH191963 -19.2682 115.480 -1 -18.9000 115.500 995 -19.2682 115.480 TC -19.2791 115.484 1 -19.1055 115.190 TC 45 990 10 255
1963019S13124 1963 8 SI WA NOT_NAMED 1963-01-24 23:00:00 TS -19.1747 115.192 main 216 216 P_____P__PO_P_ SH191963 -19.2771 115.291 -1 -18.9225 115.328 995 -19.2771 115.291 TC -19.3000 115.300 1 -19.2026 115.041 TC 45 990 10 253
1963019S13124 1963 8 SI WA NOT_NAMED 1963-01-25 00:00:00 TS -19.2260 115.022 main 227 224 O_____P__OP_O_ jtwc_sh SH191963 -19.3000 115.100 -1 -18.9509 115.159 995 -19.3000 115.100 TC -19.3311 115.098 1 -19.3000 114.900 TC 45 990 10 251
1963019S13124 1963 8 SI WA NOT_NAMED 1963-01-25 01:00:00 TS -19.2856 114.856 995 bom main 224 224 P_____O__PP_P_ SH191963 -19.3412 114.901 -1 -19.0000 115.000 995 -19.3412 114.901 TC -19.3676 114.892 1 -19.4025 114.772 TC 45 989 10 246
1963019S13124 1963 8 SI WA NOT_NAMED 1963-01-25 03:00:00 TS -19.4352 114.531 main 239 230 P_____P__PP_P_ SH191963 -19.4625 114.493 -1 -19.1891 114.728 995 -19.4625 114.493 TC -19.4580 114.474 1 -19.6073 114.535 TC 47 989 10 243
1963019S13124 1963 8 SI WA NOT_NAMED 1963-01-25 04:00:00 TS -19.5192 114.372 995 bom main 237 236 P_____O__PP_P_ SH191963 -19.5371 114.290 -1 -19.3000 114.600 995 -19.5371 114.290 TC -19.5125 114.265 1 -19.7078 114.422 TC 48 989 10 240
1963019S13124 1963 8 SI WA NOT_NAMED 1963-01-25 06:00:00 TS -19.6919 114.062 main 238 235 O_____P__OP_O_ jtwc_sh SH191963 -19.7000 113.900 -1 -19.4921 114.333 994 -19.7000 113.900 TC -19.6418 113.861 1 -19.9000 114.200 TC 50 989 10 240
1963019S13124 1963 8 SI WA NOT_NAMED 1963-01-25 07:00:00 TS -19.7755 113.908 994 bom main 235 224 P_____O__PP_P_ SH191963 -19.7618 113.711 -1 -19.6000 114.200 994 -19.7618 113.711 TC -19.7173 113.667 1 -19.9864 114.081 TC 50 988 10 238
1963019S13124 1963 8 SI WA NOT_NAMED 1963-01-25 09:00:00 TS -19.9587 113.613 main 216 216 P_____P__PP_P_ SH191963 -19.8974 113.355 -1 -19.8605 113.933 994 -19.8974 113.355 TC -19.8918 113.309 1 -20.1500 113.842 TC 50 988 10 235
1963019S13124 1963 8 SI WA NOT_NAMED 1963-01-25 10:00:00 TS -20.0594 113.472 994 bom main 207 207 P_____O__PP_P_ SH191963 -19.9805 113.191 -1 -20.0000 113.800 994 -19.9805 113.191 TC -19.9915 113.147 1 -20.2308 113.725 TC 50 988 10 231
1963019S13124 1963 8 SI WA NOT_NAMED 1963-01-25 11:00:00 TS -20.1664 113.338 main 203 197 P_____P__PO_P_ SH191963 -20.0798 113.038 -1 -20.1333 113.667 994 -20.0798 113.038 TC -20.1000 113.000 2 -20.3136 113.611 TC 50 988 10 227
1963019S13124 1963 8 SI WA NOT_NAMED 1963-01-25 12:00:00 TS -20.2844 113.211 main 197 176 O_____P__OP_O_ jtwc_sh SH191963 -20.2000 112.900 -1 -20.2666 113.533 994 -20.2000 112.900 TC -20.2320 112.872 2 -20.4000 113.500 TC 50 988 11 219
1963019S13124 1963 8 SI WA NOT_NAMED 1963-01-25 15:00:00 TS -20.7076 112.865 main 176 174 P_____P__PP_P_ SH191963 -20.7424 112.540 -1 -20.6666 113.133 994 -20.7424 112.540 TC -20.6904 112.563 2 -20.6849 113.200 TC 50 987 11 216
1963019S13124 1963 8 SI WA NOT_NAMED 1963-01-25 16:00:00 TS -20.8576 112.761 994 bom main 167 167 P_____O__PP_P_ SH191963 -20.9402 112.447 -1 -20.8000 113.000 994 -20.9402 112.447 TC -20.8551 112.481 2 -20.7866 113.102 TC 50 987 11 212
1963019S13124 1963 8 SI WA NOT_NAMED 1963-01-25 18:00:00 TS -21.1504 112.567 main 164 164 O_____P__OP_O_ jtwc_sh SH191963 -21.3000 112.300 -1 -21.0667 112.725 993 -21.3000 112.300 TC -21.1863 112.343 2 -21.0000 112.900 TC 50 987 10 212
1963019S13124 1963 8 SI WA NOT_NAMED 1963-01-25 19:00:00 TS -21.2890 112.472 993 bom main 168 168 P_____O__PP_P_ SH191963 -21.4363 112.244 -1 -21.2000 112.600 993 -21.4363 112.244 TC -21.3475 112.285 2 -21.1163 112.779 TC 50 986 9 211
1963019S13124 1963 8 SI WA NOT_NAMED 1963-01-25 21:00:00 TS -21.5501 112.305 main 173 173 P_____P__PP_P_ SH191963 -21.6599 112.170 -1 -21.4666 112.395 993 -21.6599 112.170 TC -21.6476 112.185 2 -21.3576 112.528 TC 52 986 9 211
1963019S13124 1963 8 SI WA NOT_NAMED 1963-01-25 22:00:00 TS -21.6700 112.230 993 bom main 175 169 P_____O__PP_P_ SH191963 -21.7508 112.145 -1 -21.6000 112.300 993 -21.7508 112.145 TC -21.7811 112.141 2 -21.4771 112.407 TC 53 985 8 211
1963019S13124 1963 8 SI WA NOT_NAMED 1963-01-25 23:00:00 TS -21.7831 112.158 main 169 169 P_____P__PO_P_ SH191963 -21.8302 112.123 -1 -21.7496 112.189 993 -21.8302 112.123 TC -21.9000 112.100 1 -21.5922 112.297 TC 54 985 7 212
1963019S13124 1963 8 SI WA NOT_NAMED 1963-01-26 00:00:00 TS -21.8820 112.091 main 173 173 O_____P__OP_O_ jtwc_sh SH191963 -21.9000 112.100 -1 -21.8904 112.084 993 -21.9000 112.100 TC -21.9839 112.050 1 -21.7000 112.200 TC 55 985 7 213
1963019S13124 1963 8 SI WA NOT_NAMED 1963-01-26 01:00:00 TS -21.9669 112.031 993 bom main 177 173 P_____O__PP_P_ SH191963 -21.9697 112.067 -1 -22.0000 112.000 993 -21.9697 112.067 TC -22.0548 112.004 1 -21.7999 112.122 TC 55 985 5 214
1963019S13124 1963 8 SI WA NOT_NAMED 1963-01-26 03:00:00 TS -22.0876 111.941 main 183 183 P_____P__PP_P_ SH191963 -22.0800 112.000 -1 -22.0750 111.922 992 -22.0800 112.000 TC -22.1637 111.926 1 -21.9799 112.005 TC 55 985 4 213
1963019S13124 1963 8 SI WA NOT_NAMED 1963-01-26 04:00:00 TS -22.1352 111.906 992 bom main 183 180 P_____O__PP_P_ SH191963 -22.1242 111.967 -1 -22.1000 111.900 992 -22.1242 111.967 TC -22.2050 111.892 1 -22.0599 111.962 TC 55 985 3 213
1963019S13124 1963 8 SI WA NOT_NAMED 1963-01-26 06:00:00 TS -22.2286 111.842 main 190 187 O_____P__OP_O_ jtwc_sh SH191963 -22.2000 111.900 -1 -22.2358 111.833 992 -22.2000 111.900 TC -22.2695 111.833 1 -22.2000 111.900 TC 55 985 3 212
1963019S13124 1963 8 SI WA NOT_NAMED 1963-01-26 07:00:00 TS -22.2736 111.812 992 bom main 187 187 P_____O__PP_P_ SH191963 -22.2364 111.867 -1 -22.3000 111.800 992 -22.2364 111.867 TC -22.2958 111.805 1 -22.2614 111.872 TC 55 985 3 214
1963019S13124 1963 8 SI WA NOT_NAMED 1963-01-26 09:00:00 TS -22.3474 111.756 main 187 186 P_____P__PP_P_ SH191963 -22.3000 111.800 -1 -22.3642 111.725 992 -22.3000 111.800 TC -22.3449 111.753 1 -22.3650 111.835 TC 55 985 3 216
1963019S13124 1963 8 SI WA NOT_NAMED 1963-01-26 10:00:00 TS -22.3838 111.731 992 bom main 196 196 P_____O__PP_P_ SH191963 -22.3309 111.767 -1 -22.4000 111.700 992 -22.3309 111.767 TC -22.3709 111.727 1 -22.4108 111.822 TC 55 985 3 208
1963019S13124 1963 8 SI WA NOT_NAMED 1963-01-26 11:00:00 TS -22.4252 111.711 main 196 195 P_____P__PO_P_ SH191963 -22.3636 111.733 -1 -22.4642 111.708 990 -22.3636 111.733 TC -22.4000 111.700 2 -22.4552 111.811 TC 55 985 3 206
1963019S13124 1963 8 SI WA NOT_NAMED 1963-01-26 12:00:00 TS -22.4707 111.690 main 195 195 O_____P__OP_O_ jtwc_sh SH191963 -22.4000 111.700 -1 -22.5358 111.718 988 -22.4000 111.700 TC -22.4405 111.664 2 -22.5000 111.800 TC 55 986 3 206
1963019S13124 1963 8 SI WA NOT_NAMED 1963-01-26 13:00:00 TS -22.5194 111.662 987 bom main 195 195 P_____O__PP_P_ SH191963 -22.4417 111.667 -1 -22.6000 111.700 987 -22.4417 111.667 TC -22.4812 111.628 2 -22.5474 111.783 TC 54 986 3 215
1963019S13124 1963 8 SI WA NOT_NAMED 1963-01-26 15:00:00 TS -22.6117 111.582 main 205 205 P_____P__PP_P_ SH191963 -22.5350 111.600 -1 -22.6722 111.501 989 -22.5350 111.600 TC -22.5650 111.556 2 -22.6425 111.750 TC 52 987 4 218
1963019S13124 1963 8 SI WA NOT_NAMED 1963-01-26 16:00:00 TS -22.6584 111.543 991 bom main 215 215 P_____O__PP_P_ SH191963 -22.5867 111.567 -1 -22.7000 111.400 991 -22.5867 111.567 TC -22.6090 111.520 2 -22.6921 111.733 TC 51 987 3 214
1963019S13124 1963 8 SI WA NOT_NAMED 1963-01-26 18:00:00 TS -22.7578 111.481 main 216 216 O_____P__OP_O_ jtwc_sh SH191963 -22.7000 111.500 -1 -22.7666 111.330 991 -22.7000 111.500 TC -22.7036 111.451 2 -22.8000 111.700 TC 50 988 3 210
1963019S13124 1963 8 SI WA NOT_NAMED 1963-01-26 19:00:00 TS -22.8081 111.450 991 bom main 226 226 P_____O__PP_P_ SH191963 -22.7583 111.469 -1 -22.8000 111.300 991 -22.7583 111.469 TC -22.7551 111.417 2 -22.8610 111.683 TC 50 988 4 213
1963019S13124 1963 8 SI WA NOT_NAMED 1963-01-26 21:00:00 TS -22.9143 111.377 main 227 227 P_____P__PP_P_ SH191963 -22.8850 111.407 -1 -22.8667 111.164 991 -22.8850 111.407 TC -22.8688 111.355 2 -22.9925 111.650 TC 50 988 4 211
1963019S13124 1963 8 SI WA NOT_NAMED 1963-01-26 22:00:00 TS -22.9707 111.342 991 bom main 239 239 P_____O__PP_P_ SH191963 -22.9533 111.375 -1 -22.9000 111.100 991 -22.9533 111.375 TC -22.9320 111.327 2 -23.0612 111.633 TC 50 988 4 204
1963019S13124 1963 8 SI WA NOT_NAMED 1963-01-26 23:00:00 TS -23.0289 111.311 main 239 239 P_____P__PO_P_ SH191963 -23.0250 111.339 -1 -22.9279 111.048 990 -23.0250 111.339 TC -23.0000 111.300 1 -23.1307 111.617 TC 50 988 4 203
1963019S13124 1963 8 SI WA NOT_NAMED 1963-01-27 00:00:00 TS -23.0910 111.282 main 241 241 O_____P__OP_O_ jtwc_sh SH191963 -23.1000 111.300 -1 -22.9588 111.012 990 -23.1000 111.300 TC -23.0786 111.263 1 -23.2000 111.600 TC 50 989 4 202
1963019S13124 1963 8 SI WA NOT_NAMED 1963-01-27 01:00:00 TS -23.1558 111.255 990 bom main 237 237 P_____O__PP_P_ SH191963 -23.1750 111.243 -1 -23.0000 111.000 990 -23.1750 111.243 TC -23.1626 111.227 1 -23.2667 111.581 TC 49 989 4 194
1963019S13124 1963 8 SI WA NOT_NAMED 1963-01-27 03:00:00 TS -23.2980 111.215 main 243 240 P_____P__PP_P_ SH191963 -23.3351 111.120 -1 -23.1200 111.048 990 -23.3351 111.120 TC -23.3433 111.158 1 -23.4000 111.543 TC 47 989 5 191
1963019S13124 1963 8 SI WA NOT_NAMED 1963-01-27 04:00:00 TS -23.3753 111.205 991 bom main 240 238 P_____O__PP_P_ SH191963 -23.4200 111.066 -1 -23.2000 111.100 991 -23.4200 111.066 TC -23.4382 111.129 1 -23.4667 111.525 TC 46 989 5 185
1963019S13124 1963 8 SI WA NOT_NAMED 1963-01-27 06:00:00 TS -23.5409 111.208 main 238 236 O_____P__OP_O_ jtwc_sh SH191963 -23.6000 111.000 -1 -23.4025 111.236 991 -23.6000 111.000 TC -23.6323 111.083 1 -23.6000 111.500 TC 45 990 5 0
1963019S13124 1963 8 SI WA NOT_NAMED 1963-01-27 07:00:00 TS -23.6267 111.219 992 bom main 236 223 P_____O__PP_P_ SH191963 -23.7021 110.999 -1 -23.5000 111.300 992 -23.7021 110.999 TC -23.7297 111.070 1 -23.6667 111.497 TC 45 990 5 170
1963019S13124 1963 8 SI WA NOT_NAMED 1963-01-27 09:00:00 TS -23.7934 111.254 main 223 220 P_____P__PP_P_ SH191963 -23.9150 111.047 -1 -23.6369 111.370 992 -23.9150 111.047 TC -23.9205 111.066 1 -23.8000 111.500 TC 45 991 5 166
1963019S13124 1963 8 SI WA NOT_NAMED 1963-01-27 10:00:00 TS -23.8753 111.279 993 bom main 220 220 P_____O__PP_P_ SH191963 -24.0182 111.090 -1 -23.7000 111.400 993 -24.0182 111.090 TC -24.0121 111.078 1 -23.8667 111.502 TC 45 991 5 161
1963019S13124 1963 8 SI WA NOT_NAMED 1963-01-27 11:00:00 TS -23.9565 111.310 main 217 217 P_____P__PO_P_ SH191963 -24.1145 111.142 -1 -23.7729 111.445 993 -24.1145 111.142 TC -24.1000 111.100 2 -23.9333 111.503 TC 45 991 5 159
1963019S13124 1963 8 SI WA NOT_NAMED 1963-01-27 12:00:00 TS -24.0316 111.345 main 217 203 O_____P__OP_O_ jtwc_sh SH191963 -24.2000 111.200 -1 -23.8500 111.496 993 -24.2000 111.200 TC -24.1596 111.138 2 -24.0000 111.500 TC 45 992 5 154
1963019S13124 1963 8 SI WA NOT_NAMED 1963-01-27 15:00:00 TS -24.2300 111.455 main 193 192 P_____P__PP_P_ SH191963 -24.3575 111.378 -1 -24.1063 111.655 993 -24.3575 111.378 TC -24.3146 111.314 2 -24.1925 111.458 TC 42 992 4 153
1963019S13124 1963 8 SI WA NOT_NAMED 1963-01-27 16:00:00 TS -24.2953 111.495 994 bom main 192 182 P_____O__PP_P_ SH191963 -24.4005 111.448 -1 -24.2000 111.700 994 -24.4005 111.448 TC -24.3649 111.388 2 -24.2588 111.439 TC 41 992 5 151
1963019S13124 1963 8 SI WA NOT_NAMED 1963-01-27 18:00:00 TS -24.4347 111.576 main 182 182 O_____P__OP_O_ jtwc_sh SH191963 -24.5000 111.600 -1 -24.3982 111.768 994 -24.5000 111.600 TC -24.4753 111.553 2 -24.4000 111.400 TC 40 993 5 152
1963019S13124 1963 8 SI WA NOT_NAMED 1963-01-27 19:00:00 TS -24.5069 111.618 995 bom main 182 173 P_____O__PP_P_ SH191963 -24.5562 111.680 -1 -24.5000 111.800 995 -24.5562 111.680 TC -24.5393 111.641 2 -24.4750 111.386 TC 40 993 5 153
1963019S13124 1963 8 SI WA NOT_NAMED 1963-01-27 21:00:00 TS -24.6652 111.704 main 175 175 P_____P__PP_P_ SH191963 -24.6900 111.850 -1 -24.7079 111.867 995 -24.6900 111.850 TC -24.6948 111.822 2 -24.6350 111.357 TC 40 993 5 154
1963019S13124 1963 8 SI WA NOT_NAMED 1963-01-27 22:00:00 TS -24.7530 111.746 996 bom main 177 167 P_____O__PP_P_ SH191963 -24.7751 111.936 -1 -24.8000 111.900 996 -24.7751 111.936 TC -24.7902 111.912 2 -24.7200 111.341 TC 40 993 6 156
1963019S13124 1963 8 SI WA NOT_NAMED 1963-01-27 23:00:00 TS -24.8463 111.786 main 167 167 P_____P__PO_P_ SH191963 -24.8772 112.020 -1 -24.8644 111.937 996 -24.8772 112.020 TC -24.9000 112.000 1 -24.8083 111.322 TC 40 993 6 162
1963019S13124 1963 8 SI WA NOT_NAMED 1963-01-28 00:00:00 TS -24.9522 111.824 main 174 174 O_____P__OP_O_ jtwc_sh SH191963 -25.0000 112.100 -1 -24.9240 111.972 996 -25.0000 112.100 TC -25.0414 112.093 1 -24.9000 111.300 TC 40 994 7 166
1963019S13124 1963 8 SI WA NOT_NAMED 1963-01-28 01:00:00 TS -25.0735 111.855 997 bom main 164 156 P_____O__PP_P_ SH191963 -25.1464 112.170 -1 -25.0000 112.000 997 -25.1464 112.170 TC -25.1974 112.188 1 -24.9890 111.272 TC 40 994 8 171
1963019S13124 1963 8 SI WA NOT_NAMED 1963-01-28 03:00:00 TS -25.3636 111.904 main 154 134 P_____P__PP_P_ SH191963 -25.4974 112.300 -1 -25.2722 112.020 997 -25.4974 112.300 TC -25.5448 112.378 1 -25.1775 111.207 TC 40 994 10 173
1963019S13124 1963 8 SI WA NOT_NAMED 1963-01-28 06:00:00 TS -25.8652 111.963 main 131 130 O_____P__OP_O_ jtwc_sh SH191963 -26.1000 112.500 -1 -25.8160 112.006 997 -26.1000 112.500 TC -26.1229 112.641 1 -25.5000 111.100 TC 40 995 10 173
1963019S13124 1963 8 SI WA NOT_NAMED 1963-01-28 07:00:00 TS -26.0362 111.992 997 bom main 130 129 P_____O__PP_P_ SH191963 -26.2970 112.601 -1 -26.0000 112.000 997 -26.2970 112.601 TC -26.3225 112.715 1 -25.6245 111.067 TC 39 995 10 171
1963019S13124 1963 8 SI WA NOT_NAMED 1963-01-28 09:00:00 TS -26.3808 112.047 main 129 119 P_____P__PP_P_ SH191963 -26.7001 112.809 -1 -26.3333 112.000 997 -26.7001 112.809 TC -26.7196 112.834 1 -25.8925 111.000 TC 37 995 10 173
1963019S13124 1963 8 SI WA NOT_NAMED 1963-01-28 10:00:00 TS -26.5539 112.068 997 bom main 123 123 P_____O__PP_P_ SH191963 -26.9026 112.898 -1 -26.5000 112.000 997 -26.9026 112.898 TC -26.9129 112.874 1 -26.0304 110.967 TC 36 995 10 173
1963019S13124 1963 8 SI WA NOT_NAMED 1963-01-28 11:00:00 TS -26.7256 112.080 main 127 127 P_____P__PO_P_ SH191963 -27.1031 112.965 -1 -26.6667 112.000 997 -27.1031 112.965 TC -27.1000 112.900 1 -26.1671 110.933 TC 35 995 10 0
1963019S13124 1963 8 SI WA NOT_NAMED 1963-01-28 12:00:00 TS -26.8953 112.078 main 136 136 O_____P__OP_O_ jtwc_sh SH191963 -27.3000 113.000 -1 -26.8333 112.000 997 -27.3000 113.000 TC -27.2843 112.895 1 -26.3000 110.900 TC 35 996 10 187
1963019S13124 1963 8 SI WA NOT_NAMED 1963-01-28 15:00:00 TS -27.3961 111.992 main 176 176 P_____P__PP_P_ SH191963 -27.9025 112.861 -1 -27.3333 112.000 997 -27.9025 112.861 TC -27.8239 112.795 1 -26.6500 110.800 TC 35 996 10 191
1963019S13124 1963 8 SI WA NOT_NAMED 1963-01-28 18:00:00 TS -27.8501 111.860 main 212 212 O_____P__OP_O_ jtwc_sh SH191963 -28.4000 112.600 -1 -27.8333 112.000 997 -28.4000 112.600 TC -28.3121 112.613 1 -27.0000 110.700 TC 35 997 9 194
1963019S13124 1963 8 SI WA NOT_NAMED 1963-01-28 19:00:00 TS -27.9885 111.823 997 bom main 226 226 P_____O__PP_P_ SH191963 -28.5281 112.539 -1 -28.0000 112.000 997 -28.5281 112.539 TC -28.4562 112.545 1 -27.1355 110.667 TC 35 997 8 194
1963019S13124 1963 8 SI WA NOT_NAMED 1963-01-28 21:00:00 TS -28.2423 111.752 main 229 229 P_____P__PP_P_ SH191963 -28.7250 112.427 -1 -28.3475 112.000 997 -28.7250 112.427 TC -28.7077 112.413 1 -27.4150 110.600 TC 35 997 8 194
1963019S13124 1963 8 SI WA NOT_NAMED 1963-01-28 22:00:00 TS -28.3531 111.720 997 bom main 244 244 P_____O__PP_P_ SH191963 -28.7975 112.379 -1 -28.5000 112.000 997 -28.7975 112.379 TC -28.8120 112.353 1 -27.5516 110.567 TC 35 997 7 195
1963019S13124 1963 8 SI WA NOT_NAMED 1963-01-28 23:00:00 TS -28.4521 111.691 main 247 247 P_____P__PO_P_ SH191963 -28.8552 112.336 -1 -28.6354 112.000 997 -28.8552 112.336 TC -28.9000 112.300 1 -27.6812 110.533 TC 35 997 6 193
1963019S13124 1963 8 SI WA NOT_NAMED 1963-01-29 00:00:00 TS -28.5379 111.668 main 247 247 O_____P__OP_O_ jtwc_sh SH191963 -28.9000 112.300 -1 -28.7500 112.000 997 -28.9000 112.300 TC -28.9653 112.275 1 -27.8000 110.500 TC 35 997 4 194
1963019S13124 1963 8 SI WA NOT_NAMED 1963-01-29 03:00:00 TS -28.7292 111.612 main 262 262 P_____P__PP_P_ SH191963 -28.9875 112.227 -1 -28.9687 112.000 997 -28.9875 112.227 TC -29.0675 112.226 1 -28.0875 110.385 TC 35 997 4 194
1963019S13124 1963 8 SI WA NOT_NAMED 1963-01-29 04:00:00 TS -28.7711 111.599 997 bom main 265 265 P_____O__PP_P_ SH191963 -28.9963 112.214 -1 -29.0000 112.000 997 -28.9963 112.214 TC -29.0769 112.218 1 -28.1654 110.351 TC 35 997 2 195
1963019S13124 1963 8 SI WA NOT_NAMED 1963-01-29 06:00:00 TS -28.8305 111.581 main 265 265 O_____P__OP_O_ jtwc_sh SH191963 -29.0000 112.200 -1 -29.0089 112.000 997 -29.0000 112.200 TC -29.0707 112.208 1 -28.3000 110.300 TC 35 998 2 0
1963019S13124 1963 8 SI WA NOT_NAMED 1963-01-29 07:00:00 TS -28.8531 111.576 998 bom main 269 269 P_____O__PP_P_ SH191963 -29.0031 112.197 -1 -29.0000 112.000 998 -29.0031 112.197 TC -29.0589 112.206 1 -28.3588 110.291 TC 34 998 1 0
1963019S13124 1963 8 SI WA NOT_NAMED 1963-01-29 09:00:00 TS -28.8878 111.572 main 269 269 P_____P__PP_P_ SH191963 -29.0000 112.200 -1 -29.0000 112.000 998 -29.0000 112.200 TC -29.0279 112.203 1 -28.4575 110.292 TC 32 998 1 210
1963019S13124 1963 8 SI WA NOT_NAMED 1963-01-29 10:00:00 TS -28.9016 111.571 999 bom main 269 269 P_____O__PP_P_ SH191963 -28.9975 112.202 -1 -29.0000 112.000 999 -28.9975 112.202 TC -29.0126 112.202 1 -28.5030 110.297 TC 31 998 1 0
1963019S13124 1963 8 SI WA NOT_NAMED 1963-01-29 11:00:00 TS -28.9150 111.570 main 269 269 P_____P__PO_P_ SH191963 -28.9969 112.203 -1 -29.0000 112.000 999 -28.9969 112.203 TC -29.0000 112.200 1 -28.5495 110.300 TC 30 998 1 0
1963019S13124 1963 8 SI WA NOT_NAMED 1963-01-29 12:00:00 TS -28.9293 111.567 main 269 269 O_____P__OP_O_ jtwc_sh SH191963 -29.0000 112.200 -1 -29.0000 112.000 999 -29.0000 112.200 TC -28.9918 112.197 1 -28.6000 110.300 TC 30 999 1 227
1963019S13124 1963 8 SI WA NOT_NAMED 1963-01-29 15:00:00 TS -28.9807 111.496 main 281 281 P_____P__PP_P_ SH191963 -29.0375 112.163 -1 -29.0000 112.000 999 -29.0375 112.163 TC -28.9914 112.179 1 -28.7925 110.258 TC 30 999 2 240
1963019S13124 1963 8 SI WA NOT_NAMED 1963-01-29 16:00:00 TS -28.9975 111.432 1000 bom main 291 291 P_____O__PP_P_ SH191963 -29.0568 112.143 -1 -29.0000 112.000 1000 -29.0568 112.143 TC -28.9981 112.171 1 -28.8612 110.239 TC 30 999 3 245
1963019S13124 1963 8 SI WA NOT_NAMED 1963-01-29 18:00:00 TS -29.0378 111.351 main 291 291 O_____P__OP_O_ jtwc_sh SH191963 -29.1000 112.100 -1 -29.0000 112.000 1000 -29.1000 112.100 TC -29.0194 112.153 1 -29.0000 110.200 TC 30 1000 3 248
1963019S13124 1963 8 SI WA NOT_NAMED 1963-01-29 19:00:00 TS -29.0557 111.269 1001 bom main 304 304 ______O___P_P_ SH191963 -1 -29.0000 112.000 1001 TC -29.0331 112.143 1 -29.0684 110.182 TC 29 1000 3 241
1963019S13124 1963 8 SI WA NOT_NAMED 1963-01-29 21:00:00 TS -29.1080 111.211 main 313 313 ______P___P_P_ SH191963 -1 -29.0000 112.000 1001 TC -29.0650 112.122 1 -29.2025 110.148 TC 27 1000 1 0
1963019S13124 1963 8 SI WA NOT_NAMED 1963-01-29 22:00:00 TS -29.1261 111.243 1002 bom main 313 313 ______O___P_P_ SH191963 -1 -29.0000 112.000 1002 TC -29.0823 112.111 1 -29.2686 110.131 TC 26 1000 1 177
1963019S13124 1963 8 SI WA NOT_NAMED 1963-01-29 23:00:00 TS -29.1475 111.234 main 313 313 ______P___O_P_ SH191963 -1 -29.0000 112.000 1002 TC -29.1000 112.100 2 -29.3344 110.116 TC 25 1000 1 211
1963019S13124 1963 8 SI WA NOT_NAMED 1963-01-30 00:00:00 TS -29.1600 111.220 main 317 254 ______P_____O_ -1 -29.0000 112.000 1002 2 -29.4000 110.100 TC 25 1001 21 78
1963019S13124 1963 8 SI WA NOT_NAMED 1963-01-30 01:00:00 NR -29.0000 112.000 1003 bom main 236 ______O_______ -1 -29.0000 112.000 1003 2 TC 42 77

About IBTrACS Database

This database is a web-friendly format of International Best Track Archive for Climate Stewardship (IBTrACS), a global best track data archive curated by NOAA dating back to 1842.

Updated: 2021-10-27